Terminal Aerodrome Forecast
Issued by NWS Upton, NY

Home | Current Version | Previous Version | Text Only | Print | Product List | Glossary On
Versions: 1 2 3 4 5 6 7 8 9 10 11 12 13 14 15 16 17 18 19 20 21 22 23 24 25 26 27 28 29
000
FTUS41 KOKX 050231 AAA
TAFEWR
TAF AMD
KEWR 050231Z 0503/0606 10009KT P6SM FEW030 SCT040
     FM050700 04008KT P6SM FEW050
     FM051900 13009KT P6SM FEW250
     FM060000 12006KT P6SM SKC=

USA.gov is the U.S. government's official web portal to all federal, state and local government web resources and services.